sensor_id;sensor_type;location;lat;lon;timestamp;pressure;altitude;pressure_sealevel;temperature;humidity
6615;BME280;3343;42.896;23.912;2022-08-19T06:33:23;96278.53;;;40.10;26.23
6615;BME280;3343;42.896;23.912;2022-08-19T06:43:11;96292.50;;;40.50;24.52
6615;BME280;3343;42.896;23.912;2022-08-19T06:45:41;96299.97;;;40.46;25.08
6615;BME280;3343;42.896;23.912;2022-08-19T06:48:08;96287.59;;;41.01;24.56
6615;BME280;3343;42.896;23.912;2022-08-19T06:50:36;96293.88;;;40.91;24.36
6615;BME280;3343;42.896;23.912;2022-08-19T06:53:04;96297.69;;;40.62;25.11
6615;BME280;3343;42.896;23.912;2022-08-19T06:55:31;96299.88;;;41.29;25.12
6615;BME280;3343;42.896;23.912;2022-08-19T06:58:01;96295.97;;;42.05;23.66
6615;BME280;3343;42.896;23.912;2022-08-19T07:00:29;96299.50;;;41.91;24.13
6615;BME280;3343;42.896;23.912;2022-08-19T07:02:55;96287.25;;;41.99;24.50
6615;BME280;3343;42.896;23.912;2022-08-19T07:05:22;96305.31;;;42.60;23.39
6615;BME280;3343;42.896;23.912;2022-08-19T07:07:50;96299.41;;;42.37;23.63
6615;BME280;3343;42.896;23.912;2022-08-19T07:10:18;96294.53;;;42.87;23.51
6615;BME280;3343;42.896;23.912;2022-08-19T07:12:45;96295.84;;;43.31;22.85
6615;BME280;3343;42.896;23.912;2022-08-19T07:15:14;96300.19;;;43.84;22.06
6615;BME280;3343;42.896;23.912;2022-08-19T07:17:41;96292.72;;;43.77;21.75
6615;BME280;3343;42.896;23.912;2022-08-19T07:20:10;96297.03;;;44.27;21.47
6615;BME280;3343;42.896;23.912;2022-08-19T07:22:38;96296.66;;;44.25;21.95
6615;BME280;3343;42.896;23.912;2022-08-19T07:25:08;96296.88;;;44.71;20.79
6615;BME280;3343;42.896;23.912;2022-08-19T07:27:35;96297.63;;;45.06;19.79
6615;BME280;3343;42.896;23.912;2022-08-19T07:30:04;96301.34;;;45.26;18.65
6615;BME280;3343;42.896;23.912;2022-08-19T07:32:31;96298.41;;;44.76;18.43
6615;BME280;3343;42.896;23.912;2022-08-19T07:34:58;96289.06;;;44.29;19.04
6615;BME280;3343;42.896;23.912;2022-08-19T07:37:25;96286.63;;;44.34;19.37
6615;BME280;3343;42.896;23.912;2022-08-19T07:39:55;96290.19;;;44.35;19.35
6615;BME280;3343;42.896;23.912;2022-08-19T07:42:23;96293.09;;;44.24;19.54
6615;BME280;3343;42.896;23.912;2022-08-19T07:44:50;96291.56;;;44.54;19.04
6615;BME280;3343;42.896;23.912;2022-08-19T07:47:18;96292.41;;;43.68;18.70
6615;BME280;3343;42.896;23.912;2022-08-19T07:49:44;96282.00;;;43.79;19.86
6615;BME280;3343;42.896;23.912;2022-08-19T07:52:12;96292.91;;;44.72;19.90
6615;BME280;3343;42.896;23.912;2022-08-19T07:54:39;96289.91;;;45.21;19.20
6615;BME280;3343;42.896;23.912;2022-08-19T07:57:07;96289.78;;;44.70;19.22
6615;BME280;3343;42.896;23.912;2022-08-19T07:59:36;96293.09;;;44.58;19.02
6615;BME280;3343;42.896;23.912;2022-08-19T08:02:03;96289.13;;;44.22;18.59
6615;BME280;3343;42.896;23.912;2022-08-19T08:04:31;96286.34;;;44.22;19.38
6615;BME280;3343;42.896;23.912;2022-08-19T08:07:15;96288.38;;;44.55;19.78
6615;BME280;3343;42.896;23.912;2022-08-19T08:09:59;96288.78;;;44.88;19.68
6615;BME280;3343;42.896;23.912;2022-08-19T08:12:28;96292.75;;;44.87;19.02
6615;BME280;3343;42.896;23.912;2022-08-19T08:14:59;96292.97;;;44.69;18.37
6615;BME280;3343;42.896;23.912;2022-08-19T08:17:28;96289.41;;;44.99;18.07
6615;BME280;3343;42.896;23.912;2022-08-19T08:19:56;96285.47;;;44.32;18.54
6615;BME280;3343;42.896;23.912;2022-08-19T08:22:24;96283.84;;;45.53;18.47
6615;BME280;3343;42.896;23.912;2022-08-19T08:25:10;96283.94;;;45.96;18.04
6615;BME280;3343;42.896;23.912;2022-08-19T08:27:39;96284.09;;;45.12;17.68
6615;BME280;3343;42.896;23.912;2022-08-19T08:30:09;96281.31;;;45.08;18.58
6615;BME280;3343;42.896;23.912;2022-08-19T08:32:37;96280.84;;;46.14;18.57
6615;BME280;3343;42.896;23.912;2022-08-19T08:35:06;96285.38;;;46.87;16.93
6615;BME280;3343;42.896;23.912;2022-08-19T08:37:33;96279.41;;;46.25;17.31
6615;BME280;3343;42.896;23.912;2022-08-19T08:40:03;96279.25;;;47.12;17.85
6615;BME280;3343;42.896;23.912;2022-08-19T08:42:34;96268.72;;;46.04;17.50
6615;BME280;3343;42.896;23.912;2022-08-19T08:45:08;96267.72;;;45.67;17.89
6615;BME280;3343;42.896;23.912;2022-08-19T08:47:47;96274.16;;;46.51;18.07
6615;BME280;3343;42.896;23.912;2022-08-19T08:50:18;96269.03;;;46.49;17.59
6615;BME280;3343;42.896;23.912;2022-08-19T08:52:47;96273.28;;;46.93;17.59
6615;BME280;3343;42.896;23.912;2022-08-19T08:55:20;96267.50;;;46.84;17.06
6615;BME280;3343;42.896;23.912;2022-08-19T08:57:52;96270.63;;;46.67;18.05
6615;BME280;3343;42.896;23.912;2022-08-19T09:00:22;96265.22;;;47.32;17.58
6615;BME280;3343;42.896;23.912;2022-08-19T09:02:54;96266.78;;;46.80;17.51
6615;BME280;3343;42.896;23.912;2022-08-19T09:05:21;96260.94;;;46.75;17.88
6615;BME280;3343;42.896;23.912;2022-08-19T09:07:53;96263.22;;;47.32;17.06
6615;BME280;3343;42.896;23.912;2022-08-19T09:10:29;96267.34;;;47.93;17.14
6615;BME280;3343;42.896;23.912;2022-08-19T09:13:04;96255.66;;;47.65;17.73
6615;BME280;3343;42.896;23.912;2022-08-19T09:15:37;96249.03;;;47.75;17.33
6615;BME280;3343;42.896;23.912;2022-08-19T09:18:08;96250.53;;;47.47;17.09
6615;BME280;3343;42.896;23.912;2022-08-19T09:20:35;96254.91;;;46.96;16.98
6615;BME280;3343;42.896;23.912;2022-08-19T09:23:02;96245.13;;;47.24;17.63
6615;BME280;3343;42.896;23.912;2022-08-19T09:25:29;96251.59;;;46.85;16.93
6615;BME280;3343;42.896;23.912;2022-08-19T09:27:57;96254.28;;;46.88;16.75
6615;BME280;3343;42.896;23.912;2022-08-19T09:30:30;96256.22;;;47.08;16.63
6615;BME280;3343;42.896;23.912;2022-08-19T09:32:57;96246.16;;;46.18;17.35
6615;BME280;3343;42.896;23.912;2022-08-19T09:35:27;96248.94;;;47.30;16.55
6615;BME280;3343;42.896;23.912;2022-08-19T09:37:55;96233.09;;;47.76;16.48
6615;BME280;3343;42.896;23.912;2022-08-19T09:40:23;96242.94;;;47.80;16.91
6615;BME280;3343;42.896;23.912;2022-08-19T09:42:50;96235.75;;;47.96;16.48
6615;BME280;3343;42.896;23.912;2022-08-19T09:45:20;96240.34;;;48.60;16.09
6615;BME280;3343;42.896;23.912;2022-08-19T09:47:47;96241.81;;;48.07;15.63
6615;BME280;3343;42.896;23.912;2022-08-19T09:50:14;96228.13;;;47.35;16.40
6615;BME280;3343;42.896;23.912;2022-08-19T09:52:45;96226.31;;;48.06;17.19
6615;BME280;3343;42.896;23.912;2022-08-19T09:55:13;96231.88;;;48.06;15.73
6615;BME280;3343;42.896;23.912;2022-08-19T09:57:41;96227.41;;;46.03;17.01
6615;BME280;3343;42.896;23.912;2022-08-19T10:00:09;96212.66;;;46.06;17.02
6615;BME280;3343;42.896;23.912;2022-08-19T10:02:36;96212.44;;;46.36;17.07
6615;BME280;3343;42.896;23.912;2022-08-19T10:05:04;96204.53;;;45.91;16.89
6615;BME280;3343;42.896;23.912;2022-08-19T10:07:51;96209.94;;;46.02;17.44
6615;BME280;3343;42.896;23.912;2022-08-19T10:10:18;96217.66;;;46.90;16.42
6615;BME280;3343;42.896;23.912;2022-08-19T10:12:44;96209.13;;;47.78;16.08
6615;BME280;3343;42.896;23.912;2022-08-19T10:15:13;96218.41;;;48.17;16.27
6615;BME280;3343;42.896;23.912;2022-08-19T10:17:40;96215.41;;;47.17;16.03
6615;BME280;3343;42.896;23.912;2022-08-19T10:20:08;96210.38;;;45.54;17.28
6615;BME280;3343;42.896;23.912;2022-08-19T10:22:36;96195.53;;;45.84;17.43
6615;BME280;3343;42.896;23.912;2022-08-19T10:25:06;96182.81;;;46.46;17.19
6615;BME280;3343;42.896;23.912;2022-08-19T10:27:33;96192.53;;;46.74;17.42
6615;BME280;3343;42.896;23.912;2022-08-19T10:29:59;96198.00;;;47.13;16.40
6615;BME280;3343;42.896;23.912;2022-08-19T10:32:26;96196.38;;;47.77;15.87
6615;BME280;3343;42.896;23.912;2022-08-19T10:34:55;96186.50;;;47.11;16.44
6615;BME280;3343;42.896;23.912;2022-08-19T10:37:22;96188.72;;;47.65;16.30
6615;BME280;3343;42.896;23.912;2022-08-19T10:39:49;96189.25;;;47.76;16.04
6615;BME280;3343;42.896;23.912;2022-08-19T10:42:18;96177.63;;;45.85;17.02
6615;BME280;3343;42.896;23.912;2022-08-19T10:44:46;96186.16;;;44.77;17.93
6615;BME280;3343;42.896;23.912;2022-08-19T10:47:13;96189.88;;;46.67;17.73
6615;BME280;3343;42.896;23.912;2022-08-19T10:49:40;96190.56;;;46.90;16.32
6615;BME280;3343;42.896;23.912;2022-08-19T10:52:21;96191.38;;;47.56;16.29
6615;BME280;3343;42.896;23.912;2022-08-19T10:55:00;96189.56;;;48.36;15.53
6615;BME280;3343;42.896;23.912;2022-08-19T10:57:46;96198.34;;;49.15;15.21
6615;BME280;3343;42.896;23.912;2022-08-19T11:00:14;96190.56;;;48.42;15.82
6615;BME280;3343;42.896;23.912;2022-08-19T11:02:41;96195.41;;;48.55;15.61
6615;BME280;3343;42.896;23.912;2022-08-19T11:05:10;96188.41;;;48.88;15.22
6615;BME280;3343;42.896;23.912;2022-08-19T11:07:38;96188.19;;;49.08;15.30
6615;BME280;3343;42.896;23.912;2022-08-19T11:10:06;96186.78;;;48.36;15.29
6615;BME280;3343;42.896;23.912;2022-08-19T11:12:33;96178.63;;;47.71;15.89
6615;BME280;3343;42.896;23.912;2022-08-19T11:15:03;96176.44;;;47.63;15.90
6615;BME280;3343;42.896;23.912;2022-08-19T11:17:30;96166.28;;;47.07;16.56
6615;BME280;3343;42.896;23.912;2022-08-19T11:19:57;96178.75;;;47.35;15.95
6615;BME280;3343;42.896;23.912;2022-08-19T11:22:25;96165.06;;;47.24;15.83
6615;BME280;3343;42.896;23.912;2022-08-19T11:24:52;96175.94;;;48.26;15.29
6615;BME280;3343;42.896;23.912;2022-08-19T11:27:18;96169.47;;;48.00;15.50
6615;BME280;3343;42.896;23.912;2022-08-19T11:29:45;96173.50;;;47.99;15.59
6615;BME280;3343;42.896;23.912;2022-08-19T11:32:13;96162.25;;;47.73;15.26
6615;BME280;3343;42.896;23.912;2022-08-19T11:34:41;96163.97;;;46.70;16.14
6615;BME280;3343;42.896;23.912;2022-08-19T11:37:08;96157.59;;;46.69;16.28
6615;BME280;3343;42.896;23.912;2022-08-19T11:39:36;96160.91;;;47.16;16.64
6615;BME280;3343;42.896;23.912;2022-08-19T11:42:05;96160.38;;;46.53;16.32
6615;BME280;3343;42.896;23.912;2022-08-19T11:44:53;96147.06;;;46.97;16.03
6615;BME280;3343;42.896;23.912;2022-08-19T11:47:21;96144.44;;;47.83;15.61
6615;BME280;3343;42.896;23.912;2022-08-19T11:49:48;96148.09;;;46.50;16.32
6615;BME280;3343;42.896;23.912;2022-08-19T11:52:15;96142.19;;;45.89;16.69
6615;BME280;3343;42.896;23.912;2022-08-19T11:54:42;96136.13;;;45.97;16.17
6615;BME280;3343;42.896;23.912;2022-08-19T11:57:09;96145.22;;;46.18;16.74
6615;BME280;3343;42.896;23.912;2022-08-19T11:59:36;96140.63;;;46.47;16.46
6615;BME280;3343;42.896;23.912;2022-08-19T12:02:03;96131.31;;;46.70;15.62
6615;BME280;3343;42.896;23.912;2022-08-19T12:04:31;96128.59;;;47.03;15.87
6615;BME280;3343;42.896;23.912;2022-08-19T12:06:58;96138.69;;;47.74;15.20
6615;BME280;3343;42.896;23.912;2022-08-19T12:09:25;96123.84;;;46.51;15.52
6615;BME280;3343;42.896;23.912;2022-08-19T12:11:51;96123.81;;;47.19;15.57
6615;BME280;3343;42.896;23.912;2022-08-19T12:14:18;96125.59;;;47.87;15.47
6615;BME280;3343;42.896;23.912;2022-08-19T12:16:45;96121.28;;;47.99;14.81
6615;BME280;3343;42.896;23.912;2022-08-19T12:19:12;96125.63;;;47.71;15.08
6615;BME280;3343;42.896;23.912;2022-08-19T12:21:40;96112.53;;;47.39;14.73
6615;BME280;3343;42.896;23.912;2022-08-19T12:24:08;96112.44;;;45.46;16.13
6615;BME280;3343;42.896;23.912;2022-08-19T12:26:35;96106.47;;;46.27;15.49
6615;BME280;3343;42.896;23.912;2022-08-19T12:29:02;96113.28;;;46.42;15.46
6615;BME280;3343;42.896;23.912;2022-08-19T12:31:29;96106.53;;;46.23;15.49
6615;BME280;3343;42.896;23.912;2022-08-19T12:33:57;96104.91;;;45.86;15.04
6615;BME280;3343;42.896;23.912;2022-08-19T12:36:24;96100.69;;;45.38;16.39
6615;BME280;3343;42.896;23.912;2022-08-19T12:38:53;96100.94;;;46.43;15.62
6615;BME280;3343;42.896;23.912;2022-08-19T12:41:20;96098.50;;;46.09;15.23
6615;BME280;3343;42.896;23.912;2022-08-19T12:43:48;96103.66;;;46.47;16.16
6615;BME280;3343;42.896;23.912;2022-08-19T12:46:16;96103.84;;;47.66;15.51
6615;BME280;3343;42.896;23.912;2022-08-19T12:48:43;96108.41;;;47.60;15.30
6615;BME280;3343;42.896;23.912;2022-08-19T12:51:13;96104.97;;;47.98;14.98
6615;BME280;3343;42.896;23.912;2022-08-19T12:53:41;96084.16;;;47.73;15.33
6615;BME280;3343;42.896;23.912;2022-08-19T12:56:11;96099.66;;;47.74;14.73
6615;BME280;3343;42.896;23.912;2022-08-19T12:58:40;96097.56;;;47.33;15.34
6615;BME280;3343;42.896;23.912;2022-08-19T13:01:09;96102.53;;;47.71;15.71
6615;BME280;3343;42.896;23.912;2022-08-19T13:03:37;96095.94;;;46.34;16.47
6615;BME280;3343;42.896;23.912;2022-08-19T13:06:05;96090.09;;;45.73;17.35
6615;BME280;3343;42.896;23.912;2022-08-19T13:08:31;96082.16;;;46.63;16.75
6615;BME280;3343;42.896;23.912;2022-08-19T13:11:07;96083.72;;;47.30;15.87
6615;BME280;3343;42.896;23.912;2022-08-19T13:13:35;96089.91;;;47.66;15.75
6615;BME280;3343;42.896;23.912;2022-08-19T13:16:03;96082.44;;;46.17;16.67
6615;BME280;3343;42.896;23.912;2022-08-19T13:18:30;96076.13;;;46.32;17.02
6615;BME280;3343;42.896;23.912;2022-08-19T13:21:01;96084.13;;;46.83;16.54
6615;BME280;3343;42.896;23.912;2022-08-19T13:23:29;96076.00;;;46.56;17.14
6615;BME280;3343;42.896;23.912;2022-08-19T13:25:57;96087.53;;;47.36;16.77
6615;BME280;3343;42.896;23.912;2022-08-19T13:28:24;96085.44;;;47.98;16.14
6615;BME280;3343;42.896;23.912;2022-08-19T13:30:52;96078.97;;;46.81;16.34
6615;BME280;3343;42.896;23.912;2022-08-19T13:33:37;96077.94;;;46.75;17.06
6615;BME280;3343;42.896;23.912;2022-08-19T13:36:04;96087.25;;;47.17;16.56
6615;BME280;3343;42.896;23.912;2022-08-19T13:38:33;96085.22;;;46.17;16.92
6615;BME280;3343;42.896;23.912;2022-08-19T13:41:04;96083.38;;;46.62;16.88
6615;BME280;3343;42.896;23.912;2022-08-19T13:43:31;96080.88;;;45.76;16.71
6615;BME280;3343;42.896;23.912;2022-08-19T13:46:08;96074.84;;;46.53;16.43
6615;BME280;3343;42.896;23.912;2022-08-19T13:48:35;96077.03;;;45.70;16.58
6615;BME280;3343;42.896;23.912;2022-08-19T13:51:04;96079.38;;;45.91;16.99
6615;BME280;3343;42.896;23.912;2022-08-19T13:53:31;96082.47;;;45.97;16.53
6615;BME280;3343;42.896;23.912;2022-08-19T13:55:58;96079.69;;;46.33;16.63
6615;BME280;3343;42.896;23.912;2022-08-19T13:58:25;96071.75;;;47.00;15.76
6615;BME280;3343;42.896;23.912;2022-08-19T14:00:52;96081.09;;;47.39;15.74
6615;BME280;3343;42.896;23.912;2022-08-19T14:03:20;96073.84;;;46.96;16.11
6615;BME280;3343;42.896;23.912;2022-08-19T14:05:47;96069.72;;;46.68;16.26
6615;BME280;3343;42.896;23.912;2022-08-19T14:08:14;96062.63;;;46.83;15.77
6615;BME280;3343;42.896;23.912;2022-08-19T14:10:41;96074.16;;;47.60;15.21
6615;BME280;3343;42.896;23.912;2022-08-19T14:13:13;96078.28;;;47.84;15.67
6615;BME280;3343;42.896;23.912;2022-08-19T14:15:40;96075.25;;;46.88;16.39
6615;BME280;3343;42.896;23.912;2022-08-19T14:18:07;96075.72;;;46.67;16.95
6615;BME280;3343;42.896;23.912;2022-08-19T14:20:35;96067.50;;;46.95;16.46
6615;BME280;3343;42.896;23.912;2022-08-19T14:23:03;96077.56;;;47.22;16.51
6615;BME280;3343;42.896;23.912;2022-08-19T14:25:31;96067.00;;;45.76;17.65
6615;BME280;3343;42.896;23.912;2022-08-19T14:27:58;96059.59;;;44.56;18.22
6615;BME280;3343;42.896;23.912;2022-08-19T14:30:28;96064.53;;;45.58;17.59
6615;BME280;3343;42.896;23.912;2022-08-19T14:32:55;96058.00;;;46.08;17.05
6615;BME280;3343;42.896;23.912;2022-08-19T14:35:24;96060.19;;;45.37;17.74
6615;BME280;3343;42.896;23.912;2022-08-19T14:37:54;96051.81;;;45.18;17.90
6615;BME280;3343;42.896;23.912;2022-08-19T14:40:26;96054.22;;;44.45;18.80
6615;BME280;3343;42.896;23.912;2022-08-19T14:42:55;96059.44;;;44.40;18.24
6615;BME280;3343;42.896;23.912;2022-08-19T14:45:24;96054.53;;;44.74;17.93
6615;BME280;3343;42.896;23.912;2022-08-19T14:47:52;96050.91;;;44.77;18.29
6615;BME280;3343;42.896;23.912;2022-08-19T14:50:20;96047.41;;;44.73;18.42
6615;BME280;3343;42.896;23.912;2022-08-19T14:52:48;96044.78;;;44.39;18.42
6615;BME280;3343;42.896;23.912;2022-08-19T14:55:18;96043.00;;;44.76;18.44
6615;BME280;3343;42.896;23.912;2022-08-19T14:57:45;96034.63;;;45.26;18.03
6615;BME280;3343;42.896;23.912;2022-08-19T15:00:13;96040.09;;;45.50;17.91
6615;BME280;3343;42.896;23.912;2022-08-19T15:02:40;96041.66;;;45.51;17.90
6615;BME280;3343;42.896;23.912;2022-08-19T15:05:09;96040.19;;;45.46;17.25
6615;BME280;3343;42.896;23.912;2022-08-19T15:07:36;96035.53;;;44.96;17.56
6615;BME280;3343;42.896;23.912;2022-08-19T15:10:05;96031.97;;;45.59;17.53
6615;BME280;3343;42.896;23.912;2022-08-19T15:12:35;96038.53;;;44.82;17.67
6615;BME280;3343;42.896;23.912;2022-08-19T15:15:03;96038.00;;;44.44;18.72
6615;BME280;3343;42.896;23.912;2022-08-19T15:17:30;96031.06;;;44.79;17.81
6615;BME280;3343;42.896;23.912;2022-08-19T15:19:57;96039.91;;;44.47;18.40
6615;BME280;3343;42.896;23.912;2022-08-19T15:22:23;96035.34;;;44.06;18.68
6615;BME280;3343;42.896;23.912;2022-08-19T15:24:50;96025.72;;;42.71;19.38
6615;BME280;3343;42.896;23.912;2022-08-19T15:27:19;96034.69;;;42.89;19.30
6615;BME280;3343;42.896;23.912;2022-08-19T15:29:48;96031.16;;;44.22;18.50
6615;BME280;3343;42.896;23.912;2022-08-19T15:32:15;96028.19;;;44.86;17.96
6615;BME280;3343;42.896;23.912;2022-08-19T15:34:42;96021.94;;;45.02;17.61
6615;BME280;3343;42.896;23.912;2022-08-19T15:37:09;96029.91;;;44.76;17.76
6615;BME280;3343;42.896;23.912;2022-08-19T15:39:36;96028.19;;;43.78;18.56
6615;BME280;3343;42.896;23.912;2022-08-19T15:42:03;96026.19;;;44.09;18.10
6615;BME280;3343;42.896;23.912;2022-08-19T15:44:30;96029.25;;;44.45;18.18
6615;BME280;3343;42.896;23.912;2022-08-19T15:46:58;96026.47;;;44.69;18.12
6615;BME280;3343;42.896;23.912;2022-08-19T15:49:25;96028.53;;;44.38;18.08
6615;BME280;3343;42.896;23.912;2022-08-19T15:51:52;96026.06;;;44.47;17.98
6615;BME280;3343;42.896;23.912;2022-08-19T15:54:22;96023.06;;;43.77;18.37
6615;BME280;3343;42.896;23.912;2022-08-19T15:56:49;96023.78;;;44.38;18.09
6615;BME280;3343;42.896;23.912;2022-08-19T15:59:35;96030.75;;;44.50;18.08
6615;BME280;3343;42.896;23.912;2022-08-19T16:02:24;96001.72;;;44.01;18.40
6615;BME280;3343;42.896;23.912;2022-08-19T16:05:12;96017.69;;;43.93;18.28
6615;BME280;3343;42.896;23.912;2022-08-19T16:07:57;96011.53;;;44.36;18.43
6615;BME280;3343;42.896;23.912;2022-08-19T16:10:24;96006.88;;;44.56;17.95
6615;BME280;3343;42.896;23.912;2022-08-19T16:12:52;96005.41;;;44.21;18.02
6615;BME280;3343;42.896;23.912;2022-08-19T16:15:19;96021.59;;;44.26;18.23
6615;BME280;3343;42.896;23.912;2022-08-19T16:17:48;96013.31;;;43.65;19.03
6615;BME280;3343;42.896;23.912;2022-08-19T16:20:14;96021.22;;;42.91;19.37
6615;BME280;3343;42.896;23.912;2022-08-19T16:22:44;96015.03;;;42.73;19.56
6615;BME280;3343;42.896;23.912;2022-08-19T16:25:11;96019.09;;;43.44;18.70
6615;BME280;3343;42.896;23.912;2022-08-19T16:27:38;96020.44;;;43.29;19.13
6615;BME280;3343;42.896;23.912;2022-08-19T16:30:06;96030.88;;;43.14;19.37
6615;BME280;3343;42.896;23.912;2022-08-19T16:32:34;96023.72;;;43.54;19.29
6615;BME280;3343;42.896;23.912;2022-08-19T16:35:04;96027.75;;;43.80;18.58
6615;BME280;3343;42.896;23.912;2022-08-19T16:37:31;96027.03;;;43.76;18.44
6615;BME280;3343;42.896;23.912;2022-08-19T16:39:58;96021.69;;;43.89;18.81
6615;BME280;3343;42.896;23.912;2022-08-19T16:42:25;96033.25;;;44.41;18.67
6615;BME280;3343;42.896;23.912;2022-08-19T16:44:51;96024.22;;;42.63;21.40
6615;BME280;3343;42.896;23.912;2022-08-19T16:47:19;96030.06;;;42.17;22.03
6615;BME280;3343;42.896;23.912;2022-08-19T16:49:46;96026.09;;;42.21;22.48
6615;BME280;3343;42.896;23.912;2022-08-19T16:52:15;96036.59;;;42.41;22.49
6615;BME280;3343;42.896;23.912;2022-08-19T16:54:42;96044.34;;;42.01;22.64
6615;BME280;3343;42.896;23.912;2022-08-19T16:57:09;96037.22;;;42.11;22.93
6615;BME280;3343;42.896;23.912;2022-08-19T16:59:36;96039.28;;;42.58;22.12
6615;BME280;3343;42.896;23.912;2022-08-19T17:02:04;96038.41;;;40.90;24.16
6615;BME280;3343;42.896;23.912;2022-08-19T17:04:30;96032.81;;;40.26;24.24
6615;BME280;3343;42.896;23.912;2022-08-19T17:06:57;96027.28;;;40.01;24.14
6615;BME280;3343;42.896;23.912;2022-08-19T17:09:26;96041.13;;;40.40;24.11
6615;BME280;3343;42.896;23.912;2022-08-19T17:11:52;96045.28;;;39.77;25.36
6615;BME280;3343;42.896;23.912;2022-08-19T17:14:19;96042.84;;;39.58;25.26
6615;BME280;3343;42.896;23.912;2022-08-19T17:16:46;96045.44;;;39.30;24.72
6615;BME280;3343;42.896;23.912;2022-08-19T17:19:13;96046.06;;;39.85;25.27
6615;BME280;3343;42.896;23.912;2022-08-19T17:21:41;96035.66;;;39.36;24.99
6615;BME280;3343;42.896;23.912;2022-08-19T17:24:08;96050.09;;;39.18;25.74
6615;BME280;3343;42.896;23.912;2022-08-19T17:26:37;96057.94;;;39.13;25.53
6615;BME280;3343;42.896;23.912;2022-08-19T17:29:04;96056.66;;;38.55;26.16
6615;BME280;3343;42.896;23.912;2022-08-19T17:31:32;96059.13;;;39.12;25.66
6615;BME280;3343;42.896;23.912;2022-08-19T17:33:59;96059.22;;;38.75;26.65
6615;BME280;3343;42.896;23.912;2022-08-19T17:36:28;96063.78;;;39.04;26.70
6615;BME280;3343;42.896;23.912;2022-08-19T17:38:56;96066.22;;;38.69;26.07
6615;BME280;3343;42.896;23.912;2022-08-19T17:41:25;96062.13;;;38.48;26.71
6615;BME280;3343;42.896;23.912;2022-08-19T17:43:54;96071.78;;;38.32;27.11
6615;BME280;3343;42.896;23.912;2022-08-19T17:46:21;96066.69;;;38.78;27.06
6615;BME280;3343;42.896;23.912;2022-08-19T17:48:50;96067.16;;;38.87;26.42
6615;BME280;3343;42.896;23.912;2022-08-19T17:51:22;96072.59;;;39.31;26.17
6615;BME280;3343;42.896;23.912;2022-08-19T17:53:51;96077.09;;;39.64;25.62
6615;BME280;3343;42.896;23.912;2022-08-19T17:56:18;96084.25;;;39.79;25.68
6615;BME280;3343;42.896;23.912;2022-08-19T17:58:45;96085.56;;;40.14;25.49
6615;BME280;3343;42.896;23.912;2022-08-19T18:01:15;96083.47;;;39.83;25.31
6615;BME280;3343;42.896;23.912;2022-08-19T18:03:41;96085.53;;;39.93;25.57
6615;BME280;3343;42.896;23.912;2022-08-19T18:06:09;96088.28;;;40.00;25.39
6615;BME280;3343;42.896;23.912;2022-08-19T18:08:36;96092.38;;;38.52;27.00
6615;BME280;3343;42.896;23.912;2022-08-19T18:11:04;96095.75;;;38.35;26.98
6615;BME280;3343;42.896;23.912;2022-08-19T18:13:31;96091.31;;;39.08;26.52
6615;BME280;3343;42.896;23.912;2022-08-19T18:15:58;96101.34;;;38.86;26.63
6615;BME280;3343;42.896;23.912;2022-08-19T18:18:27;96104.03;;;39.27;25.87
6615;BME280;3343;42.896;23.912;2022-08-19T18:20:54;96100.28;;;39.60;25.58
6615;BME280;3343;42.896;23.912;2022-08-19T18:23:22;96094.09;;;39.08;26.08
6615;BME280;3343;42.896;23.912;2022-08-19T18:25:49;96102.59;;;38.51;27.05
6615;BME280;3343;42.896;23.912;2022-08-19T18:28:16;96097.09;;;38.51;26.98
6615;BME280;3343;42.896;23.912;2022-08-19T18:30:44;96105.50;;;39.10;26.50
6615;BME280;3343;42.896;23.912;2022-08-19T18:33:11;96102.09;;;38.83;26.03
6615;BME280;3343;42.896;23.912;2022-08-19T18:35:42;96093.56;;;38.99;26.11
6615;BME280;3343;42.896;23.912;2022-08-19T18:38:13;96099.13;;;39.02;26.97
6615;BME280;3343;42.896;23.912;2022-08-19T18:40:57;96100.59;;;38.93;27.00
6615;BME280;3343;42.896;23.912;2022-08-19T18:43:42;96105.91;;;38.68;27.35
6615;BME280;3343;42.896;23.912;2022-08-19T18:46:27;96102.97;;;37.23;28.49
6615;BME280;3343;42.896;23.912;2022-08-19T18:49:13;96099.72;;;36.68;29.54
6615;BME280;3343;42.896;23.912;2022-08-19T18:51:43;96097.47;;;37.49;28.44
6615;BME280;3343;42.896;23.912;2022-08-19T18:54:10;96108.88;;;37.81;28.31
6615;BME280;3343;42.896;23.912;2022-08-19T18:56:37;96105.78;;;38.16;27.69
6615;BME280;3343;42.896;23.912;2022-08-19T18:59:08;96122.09;;;38.36;27.63
6615;BME280;3343;42.896;23.912;2022-08-19T19:01:38;96118.97;;;38.37;27.03
6615;BME280;3343;42.896;23.912;2022-08-19T19:04:07;96116.16;;;38.00;27.75
6615;BME280;3343;42.896;23.912;2022-08-19T19:06:37;96116.72;;;36.77;29.12
6615;BME280;3343;42.896;23.912;2022-08-19T19:09:08;96112.53;;;35.99;30.60
6615;BME280;3343;42.896;23.912;2022-08-19T19:11:39;96103.88;;;35.42;30.28
6615;BME280;3343;42.896;23.912;2022-08-19T19:14:09;96121.53;;;35.29;30.60
6615;BME280;3343;42.896;23.912;2022-08-19T19:16:38;96117.09;;;35.05;30.57
6615;BME280;3343;42.896;23.912;2022-08-19T19:19:05;96119.41;;;35.03;31.00
6615;BME280;3343;42.896;23.912;2022-08-19T19:21:33;96120.72;;;35.60;30.26
6615;BME280;3343;42.896;23.912;2022-08-19T19:24:00;96119.06;;;35.56;30.29
6615;BME280;3343;42.896;23.912;2022-08-19T19:26:29;96123.75;;;36.13;29.94
6615;BME280;3343;42.896;23.912;2022-08-19T19:28:56;96115.16;;;36.15;29.74
6615;BME280;3343;42.896;23.912;2022-08-19T19:31:25;96124.03;;;36.47;30.12
6615;BME280;3343;42.896;23.912;2022-08-19T19:33:53;96122.97;;;35.93;30.45
6615;BME280;3343;42.896;23.912;2022-08-19T19:36:20;96126.59;;;36.82;29.32
6615;BME280;3343;42.896;23.912;2022-08-19T19:38:47;96130.22;;;37.12;28.59
6615;BME280;3343;42.896;23.912;2022-08-19T19:41:15;96136.03;;;36.61;29.38
6615;BME280;3343;42.896;23.912;2022-08-19T19:43:43;96134.72;;;37.50;28.23
6615;BME280;3343;42.896;23.912;2022-08-19T19:46:10;96118.56;;;36.08;29.91
6615;BME280;3343;42.896;23.912;2022-08-19T19:48:41;96135.00;;;36.92;29.15
6615;BME280;3343;42.896;23.912;2022-08-19T19:51:09;96138.81;;;37.11;29.05
6615;BME280;3343;42.896;23.912;2022-08-19T19:53:36;96149.09;;;37.17;28.67
6615;BME280;3343;42.896;23.912;2022-08-19T19:56:03;96151.38;;;37.35;28.76
6615;BME280;3343;42.896;23.912;2022-08-19T19:58:31;96144.44;;;37.44;28.22